DNMM/LOS METAR and TAF weather

Enter ICAO airport designator
Station Type Date Time Source
DNMM METAR 2020/09/25 20:00 UTC NOAA

DNMM 252000Z 32003KT 9999 FEW011 27/23 Q1013 NOSIG


Station Type Date Time Source
DNMM Decoded METAR 2020/09/25 20:00 UTC NOAA

Lagos / Ikeja, Nigeria (DNMM) 06-35N 003-20E 38M
Sep 25, 2020 - 04:00 PM EDT / 2020.09.25 2000 UTC
Wind: from the NW (320 degrees) at 3 MPH (3 KT):0
Visibility: greater than 7 mile(s):0
Sky conditions: mostly clear
Temperature: 80 F (27 C)
Dew Point: 73 F (23 C)
Relative Humidity: 78%
Pressure (altimeter): 29.91 in. Hg (1013 hPa)
ob: DNMM 252000Z 32003KT 9999 FEW011 27/23 Q1013 NOSIG
cycle: 20

Station Type Date Time Source
DNMM TAF 2020/09/25 18:51 UTC NOAA

TAF DNMM 251700Z 2518/2624 VRB02KT 9999 SCT011 PROB30
TEMPO 2601/2604 5000 -TSRA BKN009 FEW019CB PROB30 2605/2607 5000 BR
BECMG 2608/2610 24010KT BKN012
TEMPO 2612/2617 BKN012 FEW020CB
BECMG 2617/2619 VRB02KT SCT011

Example: see airport list